createdAt,value
2022-08-17T00:02:26.167Z,18.60
2022-08-17T00:05:32.959Z,18.53
2022-08-17T00:08:38.308Z,19.07
2022-08-17T00:12:41.175Z,18.57
2022-08-17T00:15:10.404Z,16.80
2022-08-17T00:19:06.566Z,17.83
2022-08-17T00:25:04.163Z,15.50
2022-08-17T00:28:09.525Z,15.60
2022-08-17T00:31:15.741Z,15.53
2022-08-17T00:34:21.818Z,16.43
2022-08-17T00:37:27.785Z,14.90
2022-08-17T00:40:39.786Z,17.37
2022-08-17T00:43:50.210Z,15.33
2022-08-17T00:46:55.518Z,15.77
2022-08-17T00:50:00.991Z,15.47
2022-08-17T00:53:07.033Z,15.60
2022-08-17T00:56:12.964Z,15.47
2022-08-17T00:59:21.281Z,15.13
2022-08-17T01:02:26.671Z,14.93
2022-08-17T01:05:31.931Z,14.20
2022-08-17T01:08:37.843Z,16.87
2022-08-17T01:11:43.053Z,14.53
2022-08-17T01:14:48.365Z,14.60
2022-08-17T01:17:54.004Z,14.40
2022-08-17T01:20:59.974Z,14.57
2022-08-17T01:24:05.842Z,14.17
2022-08-17T01:27:11.442Z,13.63
2022-08-17T01:30:57.215Z,15.53
2022-08-17T01:33:42.367Z,14.90
2022-08-17T01:36:48.122Z,15.77
2022-08-17T01:39:53.615Z,14.27
2022-08-17T01:42:59.065Z,14.00
2022-08-17T01:46:04.880Z,13.70
2022-08-17T01:49:10.380Z,13.97
2022-08-17T01:52:16.182Z,14.93
2022-08-17T01:55:27.105Z,13.47
2022-08-17T01:58:33.177Z,14.87
2022-08-17T02:01:38.888Z,14.50
2022-08-17T02:04:45.361Z,17.53
2022-08-17T02:08:00.619Z,16.73
2022-08-17T02:11:08.954Z,14.40
2022-08-17T02:14:20.043Z,15.83
2022-08-17T02:17:26.565Z,16.93
2022-08-17T02:20:42.188Z,14.87
2022-08-17T02:23:48.462Z,17.80
2022-08-17T02:26:53.968Z,18.77
2022-08-17T02:30:00.029Z,18.77
2022-08-17T02:33:06.404Z,19.03
2022-08-17T02:36:15.438Z,19.03
2022-08-17T02:39:20.928Z,20.50
2022-08-17T02:42:28.298Z,17.37
2022-08-17T02:45:34.106Z,20.83
2022-08-17T02:48:40.049Z,20.07
2022-08-17T02:51:45.627Z,19.87
2022-08-17T02:54:51.232Z,21.27
2022-08-17T02:57:56.340Z,20.93
2022-08-17T03:01:03.496Z,22.27
2022-08-17T03:04:08.735Z,20.43
2022-08-17T03:07:15.427Z,19.17
2022-08-17T03:10:21.666Z,21.40
2022-08-17T03:13:27.340Z,21.07
2022-08-17T03:16:33.079Z,20.37
2022-08-17T03:19:42.895Z,21.00
2022-08-17T03:22:53.197Z,20.97
2022-08-17T03:25:59.464Z,21.40
2022-08-17T03:29:05.119Z,21.97
2022-08-17T03:32:10.682Z,22.47
2022-08-17T03:35:16.435Z,22.33
2022-08-17T03:38:24.537Z,20.67
2022-08-17T03:41:31.216Z,19.43
2022-08-17T03:44:36.631Z,21.50
2022-08-17T03:48:00.088Z,23.13
2022-08-17T03:51:23.154Z,22.83
2022-08-17T03:54:46.213Z,23.27
2022-08-17T03:57:51.407Z,23.17
2022-08-17T04:00:58.740Z,24.00
2022-08-17T04:04:04.398Z,21.67
2022-08-17T04:07:09.995Z,23.40
2022-08-17T04:10:15.808Z,22.13
2022-08-17T04:13:24.077Z,21.43
2022-08-17T04:16:30.916Z,23.60
2022-08-17T04:19:39.404Z,24.07
2022-08-17T04:22:45.123Z,22.07
2022-08-17T04:25:54.287Z,20.63
2022-08-17T04:29:00.547Z,21.83
2022-08-17T04:32:06.411Z,21.33
2022-08-17T04:38:35.757Z,17.77
2022-08-17T04:42:04.475Z,17.20
2022-08-17T04:45:09.937Z,19.67
2022-08-17T04:48:15.586Z,20.10
2022-08-17T04:51:21.076Z,19.23
2022-08-17T04:54:26.783Z,18.30
2022-08-17T04:57:38.467Z,17.47
2022-08-17T05:00:47.816Z,16.90
2022-08-17T05:03:53.228Z,17.63
2022-08-17T05:06:59.079Z,20.17
2022-08-17T05:10:05.966Z,19.27
2022-08-17T05:13:11.356Z,16.47
2022-08-17T05:16:16.856Z,17.40
2022-08-17T05:19:22.562Z,15.73
2022-08-17T05:22:27.986Z,19.03
2022-08-17T05:25:34.537Z,18.63
2022-08-17T05:28:42.696Z,18.90
2022-08-17T05:32:38.614Z,16.57
2022-08-17T05:35:39.673Z,17.47
2022-08-17T05:38:45.483Z,17.20
2022-08-17T05:41:51.191Z,17.63
2022-08-17T05:44:56.846Z,18.07
2022-08-17T05:48:02.351Z,16.80
2022-08-17T05:51:07.904Z,16.37
2022-08-17T05:54:13.604Z,15.13
2022-08-17T05:57:20.977Z,14.77
2022-08-17T06:00:30.568Z,15.33
2022-08-17T06:03:36.723Z,14.63
2022-08-17T06:06:42.234Z,16.30
2022-08-17T06:09:47.772Z,16.33
2022-08-17T06:12:53.653Z,16.43
2022-08-17T06:15:59.323Z,14.50
2022-08-17T06:19:11.695Z,13.73
2022-08-17T06:22:17.356Z,14.90
2022-08-17T06:25:22.917Z,15.37
2022-08-17T06:28:28.666Z,14.77
2022-08-17T06:31:33.842Z,13.77
2022-08-17T06:34:39.345Z,16.43
2022-08-17T06:37:44.541Z,14.83
2022-08-17T06:40:52.083Z,14.87
2022-08-17T06:43:57.486Z,13.87
2022-08-17T06:47:03.297Z,12.43
2022-08-17T06:50:08.583Z,12.27
2022-08-17T06:53:14.852Z,12.60
2022-08-17T06:56:20.632Z,12.37
2022-08-17T06:59:26.364Z,13.30
2022-08-17T07:02:53.536Z,12.07
2022-08-17T07:06:05.328Z,12.20
2022-08-17T07:09:11.054Z,12.17
2022-08-17T07:12:16.528Z,11.03
2022-08-17T07:15:22.232Z,10.63
2022-08-17T07:18:27.858Z,11.17
2022-08-17T07:21:34.638Z,9.80
2022-08-17T07:24:42.033Z,11.23
2022-08-17T07:27:51.191Z,11.40
2022-08-17T07:30:57.315Z,10.63
2022-08-17T07:34:02.770Z,10.37
2022-08-17T07:37:08.585Z,11.00
2022-08-17T07:40:15.456Z,11.67
2022-08-17T07:43:23.918Z,14.13
2022-08-17T07:46:47.874Z,11.23
2022-08-17T07:49:53.303Z,10.07
2022-08-17T07:52:59.314Z,9.03
2022-08-17T07:56:05.125Z,9.57
2022-08-17T07:59:10.499Z,8.80
2022-08-17T08:02:17.595Z,9.43
2022-08-17T08:05:49.744Z,9.03
2022-08-17T08:08:56.819Z,8.63
2022-08-17T08:12:03.373Z,9.07
2022-08-17T08:15:09.416Z,9.27
2022-08-17T08:18:15.537Z,9.87
2022-08-17T08:21:43.356Z,9.23
2022-08-17T08:24:48.853Z,8.80
2022-08-17T08:31:18.164Z,9.70
2022-08-17T08:34:58.563Z,9.60
2022-08-17T08:41:16.495Z,9.30
2022-08-17T08:45:00.973Z,8.87
2022-08-17T08:47:58.144Z,10.07
2022-08-17T08:51:11.286Z,8.77
2022-08-17T08:54:16.618Z,9.53
2022-08-17T08:57:33.691Z,9.13
2022-08-17T09:00:39.418Z,9.50
2022-08-17T09:03:52.877Z,9.03
2022-08-17T09:06:58.638Z,8.83
2022-08-17T09:10:03.986Z,9.57
2022-08-17T09:13:10.556Z,9.87
2022-08-17T09:16:16.669Z,8.93
2022-08-17T09:19:23.555Z,9.17
2022-08-17T09:22:31.660Z,9.60
2022-08-17T09:25:37.048Z,8.50
2022-08-17T09:28:42.932Z,9.17
2022-08-17T09:31:49.606Z,9.60
2022-08-17T09:34:56.179Z,8.93
2022-08-17T09:38:02.900Z,9.43
2022-08-17T09:41:09.986Z,9.33
2022-08-17T09:44:23.090Z,9.10
2022-08-17T09:47:35.612Z,9.50
2022-08-17T09:50:55.311Z,9.47
2022-08-17T09:54:37.044Z,12.97
2022-08-17T09:57:36.809Z,12.47
2022-08-17T10:00:42.472Z,11.43
2022-08-17T10:03:51.061Z,12.60
2022-08-17T10:06:58.212Z,12.43
2022-08-17T10:10:03.956Z,13.60
2022-08-17T10:13:09.789Z,13.03
2022-08-17T10:16:15.016Z,11.30
2022-08-17T10:19:20.195Z,11.47
2022-08-17T10:22:43.112Z,9.97
2022-08-17T10:26:08.690Z,12.33
2022-08-17T10:29:14.798Z,12.67
2022-08-17T10:32:20.454Z,11.60
2022-08-17T10:35:26.275Z,13.03
2022-08-17T10:38:32.130Z,11.60
2022-08-17T10:41:40.482Z,11.73
2022-08-17T10:44:47.462Z,13.93
2022-08-17T10:48:09.016Z,13.97
2022-08-17T10:51:15.033Z,13.63
2022-08-17T10:54:20.673Z,13.90
2022-08-17T10:57:25.899Z,15.90
2022-08-17T11:00:31.570Z,14.63
2022-08-17T11:03:36.965Z,15.77
2022-08-17T11:06:42.717Z,15.57
2022-08-17T11:09:48.140Z,16.37
2022-08-17T11:13:17.792Z,16.23
2022-08-17T11:16:23.438Z,14.53
2022-08-17T11:19:28.949Z,14.13
2022-08-17T11:22:35.255Z,13.97
2022-08-17T11:25:40.910Z,13.10
2022-08-17T11:28:48.754Z,14.73
2022-08-17T11:31:58.563Z,15.67
2022-08-17T11:35:04.852Z,13.77
2022-08-17T11:38:15.854Z,13.13
2022-08-17T11:41:22.047Z,16.37
2022-08-17T11:44:37.874Z,13.43
2022-08-17T11:48:25.956Z,14.10
2022-08-17T11:51:35.279Z,13.93
2022-08-17T11:54:40.712Z,14.27
2022-08-17T11:57:46.203Z,12.93
2022-08-17T12:00:54.835Z,12.97
2022-08-17T12:04:03.953Z,14.00
2022-08-17T12:07:09.706Z,14.03
2022-08-17T12:10:17.285Z,14.10
2022-08-17T12:13:23.870Z,14.10
2022-08-17T12:16:36.470Z,14.07
2022-08-17T12:19:42.794Z,13.20
2022-08-17T12:22:47.982Z,13.70
2022-08-17T12:25:54.581Z,12.30
2022-08-17T12:29:01.149Z,14.00
2022-08-17T12:32:07.228Z,13.13
2022-08-17T12:35:12.553Z,12.60
2022-08-17T12:38:32.585Z,12.70
2022-08-17T12:41:39.217Z,18.97
2022-08-17T12:44:49.768Z,12.90
2022-08-17T12:47:56.617Z,14.33
2022-08-17T12:51:03.141Z,13.60
2022-08-17T12:54:12.001Z,11.83
2022-08-17T12:57:17.470Z,12.20
2022-08-17T13:00:23.434Z,12.90
2022-08-17T13:03:37.806Z,13.53
2022-08-17T13:06:43.469Z,12.60
2022-08-17T13:09:49.254Z,12.57
2022-08-17T13:12:54.859Z,10.73
2022-08-17T13:16:00.781Z,11.40
2022-08-17T13:19:06.998Z,12.80
2022-08-17T13:22:12.929Z,12.27
2022-08-17T13:25:18.753Z,11.40
2022-08-17T13:28:35.523Z,10.50
2022-08-17T13:31:51.829Z,10.17
2022-08-17T13:35:12.362Z,11.37
2022-08-17T13:38:20.482Z,12.27
2022-08-17T13:41:26.011Z,11.53
2022-08-17T13:44:31.850Z,11.93
2022-08-17T13:47:37.696Z,11.60
2022-08-17T13:50:42.956Z,11.23
2022-08-17T13:53:51.418Z,10.83
2022-08-17T13:56:57.692Z,11.03
2022-08-17T14:00:03.810Z,10.17
2022-08-17T14:03:09.571Z,10.53
2022-08-17T14:06:51.623Z,10.47
2022-08-17T14:09:45.896Z,10.47
2022-08-17T14:12:52.791Z,11.83
2022-08-17T14:15:58.442Z,10.17
2022-08-17T14:19:04.401Z,10.40
2022-08-17T14:22:10.125Z,9.83
2022-08-17T14:25:16.242Z,10.13
2022-08-17T14:28:23.492Z,9.20
2022-08-17T14:31:37.230Z,9.57
2022-08-17T14:34:43.214Z,9.33
2022-08-17T14:37:50.064Z,8.90
2022-08-17T14:40:56.217Z,8.50
2022-08-17T14:44:01.546Z,8.93
2022-08-17T14:47:06.755Z,8.97
2022-08-17T14:50:13.319Z,8.60
2022-08-17T14:53:25.255Z,7.80
2022-08-17T14:56:31.681Z,8.93
2022-08-17T14:59:46.655Z,9.00
2022-08-17T15:02:53.856Z,8.47
2022-08-17T15:05:59.691Z,8.83
2022-08-17T15:09:05.044Z,9.30
2022-08-17T15:12:12.681Z,9.10
2022-08-17T15:15:18.124Z,8.77
2022-08-17T15:18:25.063Z,9.10
2022-08-17T15:21:31.193Z,8.40
2022-08-17T15:24:36.573Z,8.43
2022-08-17T15:27:42.257Z,8.33
2022-08-17T15:30:51.468Z,8.77
2022-08-17T15:33:56.919Z,7.90
2022-08-17T15:37:02.380Z,8.10
2022-08-17T15:40:08.661Z,8.00
2022-08-17T15:43:14.302Z,8.23
2022-08-17T15:46:19.641Z,8.33
2022-08-17T15:49:25.887Z,7.47
2022-08-17T15:52:31.503Z,8.40
2022-08-17T15:55:38.459Z,8.03
2022-08-17T15:58:44.299Z,7.77
2022-08-17T16:03:14.560Z,7.73
2022-08-17T16:05:15.888Z,8.10
2022-08-17T16:08:24.780Z,7.90
2022-08-17T16:11:30.114Z,8.07
2022-08-17T16:14:36.370Z,7.13
2022-08-17T16:17:42.468Z,7.53
2022-08-17T16:20:49.263Z,8.05
2022-08-17T16:23:55.657Z,8.30
2022-08-17T16:27:01.384Z,7.77
2022-08-17T16:30:06.836Z,7.93
2022-08-17T16:33:12.510Z,7.70
2022-08-17T16:36:18.552Z,7.43
2022-08-17T16:39:24.436Z,7.27
2022-08-17T16:42:30.959Z,7.37
2022-08-17T16:45:40.323Z,7.10
2022-08-17T16:48:46.869Z,7.57
2022-08-17T16:51:52.379Z,7.13
2022-08-17T16:54:57.828Z,7.10
2022-08-17T16:58:03.792Z,7.10
2022-08-17T17:01:09.475Z,7.10
2022-08-17T17:04:14.929Z,7.07
2022-08-17T17:07:20.534Z,7.20
2022-08-17T17:10:26.194Z,7.47
2022-08-17T17:13:32.398Z,7.50
2022-08-17T17:16:37.866Z,8.17
2022-08-17T17:20:05.292Z,8.20
2022-08-17T17:23:11.573Z,8.17
2022-08-17T17:26:18.373Z,7.50
2022-08-17T17:29:24.204Z,7.60
2022-08-17T17:32:29.845Z,8.10
2022-08-17T17:35:35.327Z,8.13
2022-08-17T17:38:40.638Z,7.87
2022-08-17T17:41:47.223Z,7.67
2022-08-17T17:44:52.902Z,7.20
2022-08-17T17:47:58.419Z,7.90
2022-08-17T17:51:05.254Z,7.20
2022-08-17T17:54:10.570Z,7.20
2022-08-17T17:57:17.831Z,7.70
2022-08-17T18:00:23.672Z,8.00
2022-08-17T18:03:29.482Z,7.77
2022-08-17T18:06:35.548Z,7.87
2022-08-17T18:09:41.521Z,8.30
2022-08-17T18:12:53.271Z,8.17
2022-08-17T18:16:01.110Z,7.37
2022-08-17T18:19:06.810Z,8.47
2022-08-17T18:22:14.374Z,8.37
2022-08-17T18:25:20.573Z,7.73
2022-08-17T18:28:26.211Z,9.83
2022-08-17T18:31:31.775Z,8.23
2022-08-17T18:34:46.981Z,8.50
2022-08-17T18:37:53.926Z,8.17
2022-08-17T18:40:59.530Z,8.60
2022-08-17T18:44:05.137Z,8.60
2022-08-17T18:47:10.552Z,8.47
2022-08-17T18:50:16.022Z,7.70
2022-08-17T18:53:21.266Z,9.43
2022-08-17T18:56:32.289Z,8.30
2022-08-17T18:59:55.244Z,8.90
2022-08-17T19:03:00.749Z,9.10
2022-08-17T19:06:06.444Z,8.40
2022-08-17T19:09:11.910Z,9.23
2022-08-17T19:12:17.775Z,8.40
2022-08-17T19:15:23.611Z,9.40
2022-08-17T19:18:29.065Z,9.40
2022-08-17T19:21:34.613Z,8.93
2022-08-17T19:24:47.874Z,9.00
2022-08-17T19:27:57.209Z,10.27
2022-08-17T19:31:05.030Z,9.27
2022-08-17T19:34:10.750Z,9.10
2022-08-17T19:37:16.436Z,9.17
2022-08-17T19:40:50.671Z,8.90
2022-08-17T19:43:48.198Z,8.90
2022-08-17T19:47:09.977Z,9.47
2022-08-17T19:50:17.313Z,9.03
2022-08-17T19:53:23.463Z,11.23
2022-08-17T19:56:31.943Z,9.17
2022-08-17T19:59:37.305Z,9.70
2022-08-17T20:02:43.170Z,9.13
2022-08-17T20:06:11.489Z,9.47
2022-08-17T20:09:15.445Z,10.67
2022-08-17T20:12:24.244Z,10.53
2022-08-17T20:15:30.067Z,10.63
2022-08-17T20:18:36.370Z,9.63
2022-08-17T20:21:42.045Z,9.03
2022-08-17T20:24:47.422Z,8.97
2022-08-17T20:27:53.175Z,9.43
2022-08-17T20:31:09.065Z,9.53
2022-08-17T20:34:14.983Z,9.57
2022-08-17T20:37:20.892Z,9.83
2022-08-17T20:40:27.274Z,10.37
2022-08-17T20:43:32.783Z,9.17
2022-08-17T20:46:38.152Z,9.17
2022-08-17T20:49:44.597Z,9.43
2022-08-17T20:52:50.891Z,10.47
2022-08-17T20:55:56.603Z,9.03
2022-08-17T20:59:02.206Z,10.37
2022-08-17T21:02:17.522Z,10.10
2022-08-17T21:05:30.034Z,9.83
2022-08-17T21:08:36.212Z,10.07
2022-08-17T21:12:02.654Z,10.03
2022-08-17T21:15:08.620Z,10.23
2022-08-17T21:18:14.361Z,10.70
2022-08-17T21:21:19.515Z,10.33
2022-08-17T21:24:25.270Z,11.93
2022-08-17T21:27:31.088Z,10.03
2022-08-17T21:30:36.773Z,11.03
2022-08-17T21:33:48.689Z,10.63
2022-08-17T21:36:54.085Z,10.80
2022-08-17T21:40:01.649Z,11.40
2022-08-17T21:43:08.483Z,10.43
2022-08-17T21:46:14.094Z,10.93
2022-08-17T21:49:19.671Z,11.03
2022-08-17T21:52:25.284Z,10.77
2022-08-17T21:55:30.817Z,11.43
2022-08-17T21:58:40.014Z,11.17
2022-08-17T22:01:45.608Z,10.63
2022-08-17T22:04:56.397Z,10.57
2022-08-17T22:08:06.449Z,11.50
2022-08-17T22:11:14.062Z,11.10
2022-08-17T22:14:21.450Z,11.57
2022-08-17T22:17:26.942Z,11.07
2022-08-17T22:20:53.837Z,11.13
2022-08-17T22:24:05.429Z,12.07
2022-08-17T22:27:11.676Z,11.47
2022-08-17T22:30:17.354Z,10.23
2022-08-17T22:33:22.706Z,11.37
2022-08-17T22:36:29.186Z,11.87
2022-08-17T22:39:35.332Z,11.40
2022-08-17T22:42:40.824Z,12.03
2022-08-17T22:45:46.912Z,11.53
2022-08-17T22:48:52.471Z,11.30
2022-08-17T22:51:57.966Z,12.40
2022-08-17T22:55:21.131Z,12.10
2022-08-17T22:58:44.402Z,13.73
2022-08-17T23:02:04.936Z,12.80
2022-08-17T23:05:10.264Z,11.37
2022-08-17T23:08:21.390Z,13.00
2022-08-17T23:11:36.994Z,11.97
2022-08-17T23:14:52.861Z,12.00
2022-08-17T23:17:58.520Z,11.47
2022-08-17T23:21:05.138Z,12.07
2022-08-17T23:24:10.701Z,12.20
2022-08-17T23:27:16.305Z,12.07
2022-08-17T23:30:27.352Z,13.27
2022-08-17T23:33:33.751Z,13.23
2022-08-17T23:36:39.342Z,12.80
2022-08-17T23:39:45.790Z,13.23
2022-08-17T23:42:51.861Z,16.00
2022-08-17T23:45:57.650Z,14.13
2022-08-17T23:49:06.174Z,13.17
2022-08-17T23:52:14.994Z,14.00
2022-08-17T23:55:22.305Z,12.63
2022-08-17T23:58:28.763Z,14.03
